sensor_id;sensor_type;location;lat;lon;timestamp;P1;durP1;ratioP1;P2;durP2;ratioP2
23702;SDS011;12030;50.376;8.762;2023-11-21T00:00:20;6.63;;;3.20;;
23702;SDS011;12030;50.376;8.762;2023-11-21T00:02:45;9.80;;;3.47;;
23702;SDS011;12030;50.376;8.762;2023-11-21T00:05:12;5.77;;;3.27;;
23702;SDS011;12030;50.376;8.762;2023-11-21T00:07:42;4.57;;;3.40;;
23702;SDS011;12030;50.376;8.762;2023-11-21T00:10:08;9.00;;;3.30;;
23702;SDS011;12030;50.376;8.762;2023-11-21T00:12:35;5.93;;;3.17;;
23702;SDS011;12030;50.376;8.762;2023-11-21T00:15:02;6.33;;;3.60;;
23702;SDS011;12030;50.376;8.762;2023-11-21T00:17:28;7.00;;;3.40;;
23702;SDS011;12030;50.376;8.762;2023-11-21T00:19:53;7.23;;;3.73;;
23702;SDS011;12030;50.376;8.762;2023-11-21T00:22:19;4.87;;;2.97;;
23702;SDS011;12030;50.376;8.762;2023-11-21T00:24:45;4.03;;;2.90;;
23702;SDS011;12030;50.376;8.762;2023-11-21T00:27:11;6.63;;;3.20;;
23702;SDS011;12030;50.376;8.762;2023-11-21T00:29:37;6.17;;;3.43;;
23702;SDS011;12030;50.376;8.762;2023-11-21T00:32:03;4.97;;;3.07;;
23702;SDS011;12030;50.376;8.762;2023-11-21T00:34:30;6.83;;;3.80;;
23702;SDS011;12030;50.376;8.762;2023-11-21T00:36:56;4.17;;;3.27;;
23702;SDS011;12030;50.376;8.762;2023-11-21T00:39:21;4.83;;;3.60;;
23702;SDS011;12030;50.376;8.762;2023-11-21T00:41:47;4.63;;;3.57;;
23702;SDS011;12030;50.376;8.762;2023-11-21T00:44:13;6.63;;;4.03;;
23702;SDS011;12030;50.376;8.762;2023-11-21T00:46:38;7.27;;;3.63;;
23702;SDS011;12030;50.376;8.762;2023-11-21T00:49:04;4.93;;;3.67;;
23702;SDS011;12030;50.376;8.762;2023-11-21T00:51:30;5.47;;;3.77;;
23702;SDS011;12030;50.376;8.762;2023-11-21T00:53:55;5.00;;;3.40;;
23702;SDS011;12030;50.376;8.762;2023-11-21T00:56:21;5.13;;;3.93;;
23702;SDS011;12030;50.376;8.762;2023-11-21T00:58:47;5.53;;;4.03;;
23702;SDS011;12030;50.376;8.762;2023-11-21T01:01:15;6.50;;;3.70;;
23702;SDS011;12030;50.376;8.762;2023-11-21T01:03:41;12.23;;;5.60;;
23702;SDS011;12030;50.376;8.762;2023-11-21T01:06:07;10.17;;;6.17;;
23702;SDS011;12030;50.376;8.762;2023-11-21T01:08:33;11.33;;;5.87;;
23702;SDS011;12030;50.376;8.762;2023-11-21T01:10:59;5.97;;;4.07;;
23702;SDS011;12030;50.376;8.762;2023-11-21T01:13:25;6.73;;;3.73;;
23702;SDS011;12030;50.376;8.762;2023-11-21T01:15:54;6.80;;;4.07;;
23702;SDS011;12030;50.376;8.762;2023-11-21T01:18:20;5.23;;;3.97;;
23702;SDS011;12030;50.376;8.762;2023-11-21T01:20:46;4.60;;;3.23;;
23702;SDS011;12030;50.376;8.762;2023-11-21T01:23:12;5.70;;;3.97;;
23702;SDS011;12030;50.376;8.762;2023-11-21T01:25:38;6.83;;;3.80;;
23702;SDS011;12030;50.376;8.762;2023-11-21T01:28:04;6.87;;;3.80;;
23702;SDS011;12030;50.376;8.762;2023-11-21T01:30:29;5.10;;;3.87;;
23702;SDS011;12030;50.376;8.762;2023-11-21T01:32:56;5.40;;;3.77;;
23702;SDS011;12030;50.376;8.762;2023-11-21T01:35:21;5.70;;;4.40;;
23702;SDS011;12030;50.376;8.762;2023-11-21T01:37:47;5.43;;;3.97;;
23702;SDS011;12030;50.376;8.762;2023-11-21T01:40:13;6.47;;;4.10;;
23702;SDS011;12030;50.376;8.762;2023-11-21T01:42:39;5.80;;;4.47;;
23702;SDS011;12030;50.376;8.762;2023-11-21T01:45:05;6.07;;;4.20;;
23702;SDS011;12030;50.376;8.762;2023-11-21T01:47:33;6.70;;;4.33;;
23702;SDS011;12030;50.376;8.762;2023-11-21T01:49:59;5.47;;;4.50;;
23702;SDS011;12030;50.376;8.762;2023-11-21T01:52:25;5.30;;;3.90;;
23702;SDS011;12030;50.376;8.762;2023-11-21T01:54:51;7.50;;;4.50;;
23702;SDS011;12030;50.376;8.762;2023-11-21T01:57:17;8.23;;;4.27;;
23702;SDS011;12030;50.376;8.762;2023-11-21T01:59:45;7.70;;;4.63;;
23702;SDS011;12030;50.376;8.762;2023-11-21T02:02:15;6.40;;;4.93;;
23702;SDS011;12030;50.376;8.762;2023-11-21T02:04:40;6.23;;;4.63;;
23702;SDS011;12030;50.376;8.762;2023-11-21T02:07:06;7.10;;;4.23;;
23702;SDS011;12030;50.376;8.762;2023-11-21T02:09:32;6.70;;;4.17;;
23702;SDS011;12030;50.376;8.762;2023-11-21T02:11:59;6.20;;;4.20;;
23702;SDS011;12030;50.376;8.762;2023-11-21T02:14:25;8.07;;;4.83;;
23702;SDS011;12030;50.376;8.762;2023-11-21T02:16:53;8.30;;;4.73;;
23702;SDS011;12030;50.376;8.762;2023-11-21T02:19:20;6.00;;;4.40;;
23702;SDS011;12030;50.376;8.762;2023-11-21T02:21:51;7.00;;;4.63;;
23702;SDS011;12030;50.376;8.762;2023-11-21T02:24:18;5.50;;;4.67;;
23702;SDS011;12030;50.376;8.762;2023-11-21T02:26:45;6.57;;;4.80;;
23702;SDS011;12030;50.376;8.762;2023-11-21T02:29:11;5.40;;;4.70;;
23702;SDS011;12030;50.376;8.762;2023-11-21T02:31:38;6.80;;;5.40;;
23702;SDS011;12030;50.376;8.762;2023-11-21T02:34:12;5.43;;;4.93;;
23702;SDS011;12030;50.376;8.762;2023-11-21T02:36:42;6.50;;;5.03;;
23702;SDS011;12030;50.376;8.762;2023-11-21T02:39:09;6.20;;;4.90;;
23702;SDS011;12030;50.376;8.762;2023-11-21T02:41:35;6.40;;;5.30;;
23702;SDS011;12030;50.376;8.762;2023-11-21T02:44:02;8.07;;;5.80;;
23702;SDS011;12030;50.376;8.762;2023-11-21T02:46:27;6.43;;;5.33;;
23702;SDS011;12030;50.376;8.762;2023-11-21T02:48:53;7.97;;;6.10;;
23702;SDS011;12030;50.376;8.762;2023-11-21T02:51:19;6.97;;;6.03;;
23702;SDS011;12030;50.376;8.762;2023-11-21T02:53:45;9.63;;;6.30;;
23702;SDS011;12030;50.376;8.762;2023-11-21T02:56:11;7.43;;;6.17;;
23702;SDS011;12030;50.376;8.762;2023-11-21T02:58:37;8.00;;;5.93;;
23702;SDS011;12030;50.376;8.762;2023-11-21T03:01:06;7.60;;;6.87;;
23702;SDS011;12030;50.376;8.762;2023-11-21T03:03:32;7.23;;;6.17;;
23702;SDS011;12030;50.376;8.762;2023-11-21T03:05:57;9.50;;;6.77;;
23702;SDS011;12030;50.376;8.762;2023-11-21T03:08:23;9.20;;;7.13;;
23702;SDS011;12030;50.376;8.762;2023-11-21T03:10:48;9.27;;;7.17;;
23702;SDS011;12030;50.376;8.762;2023-11-21T03:13:14;8.57;;;7.37;;
23702;SDS011;12030;50.376;8.762;2023-11-21T03:15:39;9.87;;;6.43;;
23702;SDS011;12030;50.376;8.762;2023-11-21T03:18:05;10.40;;;7.03;;
23702;SDS011;12030;50.376;8.762;2023-11-21T03:20:31;9.43;;;6.97;;
23702;SDS011;12030;50.376;8.762;2023-11-21T03:22:56;11.53;;;7.47;;
23702;SDS011;12030;50.376;8.762;2023-11-21T03:25:22;11.90;;;8.30;;
23702;SDS011;12030;50.376;8.762;2023-11-21T03:27:49;10.40;;;7.80;;
23702;SDS011;12030;50.376;8.762;2023-11-21T03:30:14;11.27;;;8.20;;
23702;SDS011;12030;50.376;8.762;2023-11-21T03:32:40;11.97;;;8.37;;
23702;SDS011;12030;50.376;8.762;2023-11-21T03:35:06;9.87;;;8.20;;
23702;SDS011;12030;50.376;8.762;2023-11-21T03:37:32;11.10;;;7.67;;
23702;SDS011;12030;50.376;8.762;2023-11-21T03:39:57;10.43;;;7.87;;
23702;SDS011;12030;50.376;8.762;2023-11-21T03:42:23;8.50;;;6.93;;
23702;SDS011;12030;50.376;8.762;2023-11-21T03:44:50;7.90;;;7.10;;
23702;SDS011;12030;50.376;8.762;2023-11-21T03:47:16;9.33;;;7.97;;
23702;SDS011;12030;50.376;8.762;2023-11-21T03:49:41;9.03;;;7.67;;
23702;SDS011;12030;50.376;8.762;2023-11-21T03:52:07;9.80;;;8.43;;
23702;SDS011;12030;50.376;8.762;2023-11-21T03:54:34;9.53;;;8.60;;
23702;SDS011;12030;50.376;8.762;2023-11-21T03:56:59;10.50;;;9.20;;
23702;SDS011;12030;50.376;8.762;2023-11-21T03:59:25;11.90;;;9.47;;
23702;SDS011;12030;50.376;8.762;2023-11-21T04:01:50;12.83;;;9.57;;
23702;SDS011;12030;50.376;8.762;2023-11-21T04:04:16;12.57;;;9.63;;
23702;SDS011;12030;50.376;8.762;2023-11-21T04:06:41;13.33;;;9.73;;
23702;SDS011;12030;50.376;8.762;2023-11-21T04:09:07;11.23;;;6.93;;
23702;SDS011;12030;50.376;8.762;2023-11-21T04:11:32;8.10;;;6.10;;
23702;SDS011;12030;50.376;8.762;2023-11-21T04:13:59;8.73;;;7.47;;
23702;SDS011;12030;50.376;8.762;2023-11-21T04:16:24;8.57;;;7.30;;
23702;SDS011;12030;50.376;8.762;2023-11-21T04:18:50;11.70;;;7.93;;
23702;SDS011;12030;50.376;8.762;2023-11-21T04:21:15;9.13;;;7.43;;
23702;SDS011;12030;50.376;8.762;2023-11-21T04:23:41;9.93;;;6.97;;
23702;SDS011;12030;50.376;8.762;2023-11-21T04:26:07;4.67;;;4.20;;
23702;SDS011;12030;50.376;8.762;2023-11-21T04:28:33;3.90;;;3.50;;
23702;SDS011;12030;50.376;8.762;2023-11-21T04:30:59;5.17;;;4.50;;
23702;SDS011;12030;50.376;8.762;2023-11-21T04:33:25;4.27;;;3.67;;
23702;SDS011;12030;50.376;8.762;2023-11-21T04:35:50;5.70;;;4.07;;
23702;SDS011;12030;50.376;8.762;2023-11-21T04:38:16;2.67;;;2.13;;
23702;SDS011;12030;50.376;8.762;2023-11-21T04:40:42;3.53;;;2.33;;
23702;SDS011;12030;50.376;8.762;2023-11-21T04:43:07;3.70;;;2.07;;
23702;SDS011;12030;50.376;8.762;2023-11-21T04:45:33;1.70;;;1.40;;
23702;SDS011;12030;50.376;8.762;2023-11-21T04:47:59;1.83;;;1.10;;
23702;SDS011;12030;50.376;8.762;2023-11-21T04:50:24;2.03;;;1.10;;
23702;SDS011;12030;50.376;8.762;2023-11-21T04:52:52;2.73;;;1.30;;
23702;SDS011;12030;50.376;8.762;2023-11-21T04:55:17;1.57;;;1.23;;
23702;SDS011;12030;50.376;8.762;2023-11-21T04:57:43;1.60;;;0.80;;
23702;SDS011;12030;50.376;8.762;2023-11-21T05:00:09;0.97;;;0.73;;
23702;SDS011;12030;50.376;8.762;2023-11-21T05:02:35;2.20;;;0.70;;
23702;SDS011;12030;50.376;8.762;2023-11-21T05:05:01;3.87;;;0.80;;
23702;SDS011;12030;50.376;8.762;2023-11-21T05:07:27;0.93;;;0.60;;
23702;SDS011;12030;50.376;8.762;2023-11-21T05:09:54;1.13;;;0.80;;
23702;SDS011;12030;50.376;8.762;2023-11-21T05:12:21;2.33;;;0.80;;
23702;SDS011;12030;50.376;8.762;2023-11-21T05:14:47;0.83;;;0.70;;
23702;SDS011;12030;50.376;8.762;2023-11-21T05:17:13;2.33;;;0.90;;
23702;SDS011;12030;50.376;8.762;2023-11-21T05:19:39;1.57;;;1.00;;
23702;SDS011;12030;50.376;8.762;2023-11-21T05:22:05;1.17;;;1.07;;
23702;SDS011;12030;50.376;8.762;2023-11-21T05:24:31;1.67;;;1.13;;
23702;SDS011;12030;50.376;8.762;2023-11-21T05:26:57;1.37;;;1.20;;
23702;SDS011;12030;50.376;8.762;2023-11-21T05:29:22;3.30;;;1.53;;
23702;SDS011;12030;50.376;8.762;2023-11-21T05:31:48;2.27;;;1.90;;
23702;SDS011;12030;50.376;8.762;2023-11-21T05:34:14;1.80;;;1.37;;
23702;SDS011;12030;50.376;8.762;2023-11-21T05:36:42;2.70;;;2.30;;
23702;SDS011;12030;50.376;8.762;2023-11-21T05:39:08;1.77;;;1.67;;
23702;SDS011;12030;50.376;8.762;2023-11-21T05:41:36;3.07;;;2.23;;
23702;SDS011;12030;50.376;8.762;2023-11-21T05:44:01;3.07;;;2.73;;
23702;SDS011;12030;50.376;8.762;2023-11-21T05:46:27;4.13;;;3.40;;
23702;SDS011;12030;50.376;8.762;2023-11-21T05:48:52;5.40;;;4.53;;
23702;SDS011;12030;50.376;8.762;2023-11-21T05:51:18;7.10;;;5.83;;
23702;SDS011;12030;50.376;8.762;2023-11-21T05:53:44;7.00;;;5.60;;
23702;SDS011;12030;50.376;8.762;2023-11-21T05:56:09;5.97;;;5.30;;
23702;SDS011;12030;50.376;8.762;2023-11-21T05:58:35;7.20;;;6.50;;
23702;SDS011;12030;50.376;8.762;2023-11-21T06:01:00;6.87;;;6.17;;
23702;SDS011;12030;50.376;8.762;2023-11-21T06:03:26;7.43;;;6.50;;
23702;SDS011;12030;50.376;8.762;2023-11-21T06:05:51;10.37;;;7.70;;
23702;SDS011;12030;50.376;8.762;2023-11-21T06:08:17;10.33;;;7.67;;
23702;SDS011;12030;50.376;8.762;2023-11-21T06:10:43;8.00;;;7.20;;
23702;SDS011;12030;50.376;8.762;2023-11-21T06:13:09;8.23;;;7.20;;
23702;SDS011;12030;50.376;8.762;2023-11-21T06:15:35;8.23;;;7.40;;
23702;SDS011;12030;50.376;8.762;2023-11-21T06:18:01;8.07;;;7.17;;
23702;SDS011;12030;50.376;8.762;2023-11-21T06:20:27;10.40;;;8.07;;
23702;SDS011;12030;50.376;8.762;2023-11-21T06:22:52;8.07;;;6.93;;
23702;SDS011;12030;50.376;8.762;2023-11-21T06:25:18;9.57;;;8.33;;
23702;SDS011;12030;50.376;8.762;2023-11-21T06:27:45;8.90;;;8.03;;
23702;SDS011;12030;50.376;8.762;2023-11-21T06:30:13;9.00;;;8.10;;
23702;SDS011;12030;50.376;8.762;2023-11-21T06:32:40;9.10;;;8.20;;
23702;SDS011;12030;50.376;8.762;2023-11-21T06:35:06;9.47;;;8.50;;
23702;SDS011;12030;50.376;8.762;2023-11-21T06:37:34;10.47;;;9.30;;
23702;SDS011;12030;50.376;8.762;2023-11-21T06:40:00;10.03;;;9.03;;
23702;SDS011;12030;50.376;8.762;2023-11-21T06:42:26;10.43;;;9.33;;
23702;SDS011;12030;50.376;8.762;2023-11-21T06:44:52;11.00;;;9.83;;
23702;SDS011;12030;50.376;8.762;2023-11-21T06:47:24;10.50;;;9.30;;
23702;SDS011;12030;50.376;8.762;2023-11-21T06:49:50;10.23;;;9.10;;
23702;SDS011;12030;50.376;8.762;2023-11-21T06:52:17;10.17;;;9.17;;
23702;SDS011;12030;50.376;8.762;2023-11-21T06:54:43;9.50;;;8.60;;
23702;SDS011;12030;50.376;8.762;2023-11-21T06:57:08;10.43;;;9.20;;
23702;SDS011;12030;50.376;8.762;2023-11-21T06:59:34;11.10;;;9.77;;
23702;SDS011;12030;50.376;8.762;2023-11-21T07:02:00;10.30;;;9.17;;
23702;SDS011;12030;50.376;8.762;2023-11-21T07:04:25;11.57;;;10.07;;
23702;SDS011;12030;50.376;8.762;2023-11-21T07:06:51;12.30;;;10.17;;
23702;SDS011;12030;50.376;8.762;2023-11-21T07:09:18;11.63;;;9.53;;
23702;SDS011;12030;50.376;8.762;2023-11-21T07:11:47;12.27;;;10.00;;
23702;SDS011;12030;50.376;8.762;2023-11-21T07:14:15;12.40;;;10.33;;
23702;SDS011;12030;50.376;8.762;2023-11-21T07:16:42;12.50;;;10.07;;
23702;SDS011;12030;50.376;8.762;2023-11-21T07:19:07;13.43;;;10.07;;
23702;SDS011;12030;50.376;8.762;2023-11-21T07:21:33;13.10;;;10.30;;
23702;SDS011;12030;50.376;8.762;2023-11-21T07:23:59;13.10;;;11.10;;
23702;SDS011;12030;50.376;8.762;2023-11-21T07:26:30;13.60;;;11.33;;
23702;SDS011;12030;50.376;8.762;2023-11-21T07:28:55;14.83;;;11.07;;
23702;SDS011;12030;50.376;8.762;2023-11-21T07:31:22;16.07;;;12.00;;
23702;SDS011;12030;50.376;8.762;2023-11-21T07:33:49;15.17;;;11.93;;
23702;SDS011;12030;50.376;8.762;2023-11-21T07:36:15;15.70;;;11.00;;
23702;SDS011;12030;50.376;8.762;2023-11-21T07:38:43;15.77;;;11.23;;
23702;SDS011;12030;50.376;8.762;2023-11-21T07:41:10;18.50;;;12.20;;
23702;SDS011;12030;50.376;8.762;2023-11-21T07:43:36;14.23;;;10.87;;
23702;SDS011;12030;50.376;8.762;2023-11-21T07:46:02;16.97;;;11.60;;
23702;SDS011;12030;50.376;8.762;2023-11-21T07:48:29;17.70;;;11.17;;
23702;SDS011;12030;50.376;8.762;2023-11-21T07:50:54;14.73;;;11.40;;
23702;SDS011;12030;50.376;8.762;2023-11-21T07:53:20;17.30;;;11.03;;
23702;SDS011;12030;50.376;8.762;2023-11-21T07:55:47;16.63;;;11.77;;
23702;SDS011;12030;50.376;8.762;2023-11-21T07:58:12;15.37;;;11.60;;
23702;SDS011;12030;50.376;8.762;2023-11-21T08:00:38;14.40;;;10.43;;
23702;SDS011;12030;50.376;8.762;2023-11-21T08:03:04;15.20;;;10.90;;
23702;SDS011;12030;50.376;8.762;2023-11-21T08:05:30;15.70;;;10.27;;
23702;SDS011;12030;50.376;8.762;2023-11-21T08:07:56;15.07;;;10.60;;
23702;SDS011;12030;50.376;8.762;2023-11-21T08:10:22;12.30;;;9.73;;
23702;SDS011;12030;50.376;8.762;2023-11-21T08:12:47;12.97;;;9.70;;
23702;SDS011;12030;50.376;8.762;2023-11-21T08:15:16;16.57;;;9.53;;
23702;SDS011;12030;50.376;8.762;2023-11-21T08:17:41;11.03;;;9.30;;
23702;SDS011;12030;50.376;8.762;2023-11-21T08:20:07;12.97;;;9.33;;
23702;SDS011;12030;50.376;8.762;2023-11-21T08:22:35;12.27;;;8.43;;
23702;SDS011;12030;50.376;8.762;2023-11-21T08:25:01;12.07;;;8.40;;
23702;SDS011;12030;50.376;8.762;2023-11-21T08:27:29;10.47;;;8.47;;
23702;SDS011;12030;50.376;8.762;2023-11-21T08:29:54;10.87;;;8.53;;
23702;SDS011;12030;50.376;8.762;2023-11-21T08:32:21;11.73;;;8.87;;
23702;SDS011;12030;50.376;8.762;2023-11-21T08:34:47;10.27;;;8.67;;
23702;SDS011;12030;50.376;8.762;2023-11-21T08:37:15;9.40;;;8.43;;
23702;SDS011;12030;50.376;8.762;2023-11-21T08:39:41;11.70;;;8.77;;
23702;SDS011;12030;50.376;8.762;2023-11-21T08:42:08;10.17;;;7.67;;
23702;SDS011;12030;50.376;8.762;2023-11-21T08:44:33;11.53;;;8.77;;
23702;SDS011;12030;50.376;8.762;2023-11-21T08:46:59;10.67;;;8.30;;
23702;SDS011;12030;50.376;8.762;2023-11-21T08:49:24;8.53;;;7.33;;
23702;SDS011;12030;50.376;8.762;2023-11-21T08:51:52;10.20;;;7.93;;
23702;SDS011;12030;50.376;8.762;2023-11-21T08:54:20;11.77;;;7.70;;
23702;SDS011;12030;50.376;8.762;2023-11-21T08:56:46;9.73;;;7.90;;
23702;SDS011;12030;50.376;8.762;2023-11-21T08:59:12;9.93;;;7.30;;
23702;SDS011;12030;50.376;8.762;2023-11-21T09:01:39;9.20;;;7.37;;
23702;SDS011;12030;50.376;8.762;2023-11-21T09:04:05;8.93;;;7.27;;
23702;SDS011;12030;50.376;8.762;2023-11-21T09:06:30;9.60;;;8.07;;
23702;SDS011;12030;50.376;8.762;2023-11-21T09:08:56;9.83;;;8.10;;
23702;SDS011;12030;50.376;8.762;2023-11-21T09:11:22;9.30;;;7.93;;
23702;SDS011;12030;50.376;8.762;2023-11-21T09:13:50;10.90;;;7.43;;
23702;SDS011;12030;50.376;8.762;2023-11-21T09:16:16;10.43;;;7.60;;
23702;SDS011;12030;50.376;8.762;2023-11-21T09:18:42;10.13;;;7.87;;
23702;SDS011;12030;50.376;8.762;2023-11-21T09:21:07;11.83;;;8.30;;
23702;SDS011;12030;50.376;8.762;2023-11-21T09:23:33;11.17;;;8.50;;
23702;SDS011;12030;50.376;8.762;2023-11-21T09:25:59;10.23;;;7.97;;
23702;SDS011;12030;50.376;8.762;2023-11-21T09:28:26;11.43;;;8.13;;
23702;SDS011;12030;50.376;8.762;2023-11-21T09:30:52;10.17;;;8.20;;
23702;SDS011;12030;50.376;8.762;2023-11-21T09:33:18;9.67;;;7.87;;
23702;SDS011;12030;50.376;8.762;2023-11-21T09:35:44;9.20;;;7.07;;
23702;SDS011;12030;50.376;8.762;2023-11-21T09:38:09;8.10;;;6.80;;
23702;SDS011;12030;50.376;8.762;2023-11-21T09:40:36;8.47;;;6.07;;
23702;SDS011;12030;50.376;8.762;2023-11-21T09:43:05;10.03;;;7.07;;
23702;SDS011;12030;50.376;8.762;2023-11-21T09:45:36;8.57;;;6.70;;
23702;SDS011;12030;50.376;8.762;2023-11-21T09:48:04;9.27;;;6.73;;
23702;SDS011;12030;50.376;8.762;2023-11-21T09:50:31;9.83;;;6.17;;
23702;SDS011;12030;50.376;8.762;2023-11-21T09:53:03;7.70;;;6.23;;
23702;SDS011;12030;50.376;8.762;2023-11-21T09:55:35;8.67;;;6.90;;
23702;SDS011;12030;50.376;8.762;2023-11-21T09:58:02;8.53;;;6.77;;
23702;SDS011;12030;50.376;8.762;2023-11-21T10:00:30;8.13;;;6.40;;
23702;SDS011;12030;50.376;8.762;2023-11-21T10:02:58;7.53;;;6.27;;
23702;SDS011;12030;50.376;8.762;2023-11-21T10:05:24;9.13;;;5.80;;
23702;SDS011;12030;50.376;8.762;2023-11-21T10:07:50;6.60;;;5.83;;
23702;SDS011;12030;50.376;8.762;2023-11-21T10:10:17;11.17;;;5.87;;
23702;SDS011;12030;50.376;8.762;2023-11-21T10:12:46;8.63;;;6.40;;
23702;SDS011;12030;50.376;8.762;2023-11-21T10:15:18;9.87;;;6.70;;
23702;SDS011;12030;50.376;8.762;2023-11-21T10:17:48;9.20;;;6.53;;
23702;SDS011;12030;50.376;8.762;2023-11-21T10:20:14;9.37;;;6.30;;
23702;SDS011;12030;50.376;8.762;2023-11-21T10:22:41;7.60;;;5.80;;
23702;SDS011;12030;50.376;8.762;2023-11-21T10:25:08;6.77;;;5.63;;
23702;SDS011;12030;50.376;8.762;2023-11-21T10:27:34;8.30;;;6.07;;
23702;SDS011;12030;50.376;8.762;2023-11-21T10:30:03;9.03;;;6.07;;
23702;SDS011;12030;50.376;8.762;2023-11-21T10:32:30;7.47;;;6.00;;
23702;SDS011;12030;50.376;8.762;2023-11-21T10:34:57;8.30;;;6.33;;
23702;SDS011;12030;50.376;8.762;2023-11-21T10:37:25;8.30;;;5.80;;
23702;SDS011;12030;50.376;8.762;2023-11-21T10:39:56;7.70;;;5.27;;
23702;SDS011;12030;50.376;8.762;2023-11-21T10:42:23;9.17;;;5.80;;
23702;SDS011;12030;50.376;8.762;2023-11-21T10:44:49;8.47;;;5.77;;
23702;SDS011;12030;50.376;8.762;2023-11-21T10:47:15;8.03;;;5.90;;
23702;SDS011;12030;50.376;8.762;2023-11-21T10:49:44;7.17;;;5.70;;
23702;SDS011;12030;50.376;8.762;2023-11-21T10:52:12;6.37;;;5.23;;
23702;SDS011;12030;50.376;8.762;2023-11-21T10:54:42;9.70;;;5.27;;
23702;SDS011;12030;50.376;8.762;2023-11-21T10:57:08;6.60;;;4.73;;
23702;SDS011;12030;50.376;8.762;2023-11-21T10:59:35;7.17;;;4.83;;
23702;SDS011;12030;50.376;8.762;2023-11-21T11:02:01;6.70;;;4.90;;
23702;SDS011;12030;50.376;8.762;2023-11-21T11:04:41;8.70;;;4.90;;
23702;SDS011;12030;50.376;8.762;2023-11-21T11:07:07;8.63;;;6.07;;
23702;SDS011;12030;50.376;8.762;2023-11-21T11:09:37;8.03;;;5.20;;
23702;SDS011;12030;50.376;8.762;2023-11-21T11:12:02;7.17;;;5.17;;
23702;SDS011;12030;50.376;8.762;2023-11-21T11:14:32;8.37;;;5.47;;
23702;SDS011;12030;50.376;8.762;2023-11-21T11:16:58;8.33;;;5.30;;
23702;SDS011;12030;50.376;8.762;2023-11-21T11:19:26;9.87;;;5.80;;
23702;SDS011;12030;50.376;8.762;2023-11-21T11:24:41;7.43;;;4.90;;
23702;SDS011;12030;50.376;8.762;2023-11-21T11:38:06;9.97;;;5.37;;
23702;SDS011;12030;50.376;8.762;2023-11-21T11:40:39;10.10;;;4.83;;
23702;SDS011;12030;50.376;8.762;2023-11-21T11:43:06;6.80;;;4.77;;
23702;SDS011;12030;50.376;8.762;2023-11-21T11:45:33;6.20;;;4.40;;
23702;SDS011;12030;50.376;8.762;2023-11-21T11:48:00;8.73;;;4.77;;
23702;SDS011;12030;50.376;8.762;2023-11-21T11:50:27;5.03;;;4.27;;
23702;SDS011;12030;50.376;8.762;2023-11-21T11:52:53;6.10;;;4.33;;
23702;SDS011;12030;50.376;8.762;2023-11-21T11:55:20;6.83;;;4.70;;
23702;SDS011;12030;50.376;8.762;2023-11-21T11:57:53;9.30;;;4.80;;
23702;SDS011;12030;50.376;8.762;2023-11-21T12:02:52;8.03;;;5.07;;
23702;SDS011;12030;50.376;8.762;2023-11-21T12:05:23;4.90;;;4.40;;
23702;SDS011;12030;50.376;8.762;2023-11-21T12:07:55;8.53;;;4.73;;
23702;SDS011;12030;50.376;8.762;2023-11-21T12:10:40;5.87;;;4.80;;
23702;SDS011;12030;50.376;8.762;2023-11-21T12:13:08;6.90;;;5.07;;
23702;SDS011;12030;50.376;8.762;2023-11-21T12:15:35;6.73;;;4.87;;
23702;SDS011;12030;50.376;8.762;2023-11-21T12:18:01;7.10;;;4.90;;
23702;SDS011;12030;50.376;8.762;2023-11-21T12:20:28;7.33;;;5.10;;
23702;SDS011;12030;50.376;8.762;2023-11-21T12:22:56;7.30;;;4.57;;
23702;SDS011;12030;50.376;8.762;2023-11-21T12:25:26;10.37;;;4.60;;
23702;SDS011;12030;50.376;8.762;2023-11-21T12:27:54;6.53;;;4.43;;
23702;SDS011;12030;50.376;8.762;2023-11-21T12:30:21;7.60;;;4.87;;
23702;SDS011;12030;50.376;8.762;2023-11-21T12:32:51;7.07;;;4.30;;
23702;SDS011;12030;50.376;8.762;2023-11-21T12:35:18;8.80;;;4.60;;
23702;SDS011;12030;50.376;8.762;2023-11-21T12:37:46;7.30;;;4.93;;
23702;SDS011;12030;50.376;8.762;2023-11-21T12:40:13;7.33;;;4.37;;
23702;SDS011;12030;50.376;8.762;2023-11-21T12:42:41;5.70;;;4.50;;
23702;SDS011;12030;50.376;8.762;2023-11-21T12:47:55;6.23;;;4.60;;
23702;SDS011;12030;50.376;8.762;2023-11-21T12:50:25;5.80;;;4.00;;
23702;SDS011;12030;50.376;8.762;2023-11-21T12:52:54;7.07;;;4.20;;
23702;SDS011;12030;50.376;8.762;2023-11-21T12:55:23;4.70;;;3.87;;
23702;SDS011;12030;50.376;8.762;2023-11-21T12:57:50;4.80;;;3.83;;
23702;SDS011;12030;50.376;8.762;2023-11-21T13:00:17;7.07;;;4.10;;
23702;SDS011;12030;50.376;8.762;2023-11-21T13:02:52;6.80;;;4.00;;
23702;SDS011;12030;50.376;8.762;2023-11-21T13:05:23;6.77;;;4.43;;
23702;SDS011;12030;50.376;8.762;2023-11-21T13:07:56;5.27;;;4.23;;
23702;SDS011;12030;50.376;8.762;2023-11-21T13:10:24;5.53;;;3.30;;
23702;SDS011;12030;50.376;8.762;2023-11-21T13:12:59;7.53;;;3.60;;
23702;SDS011;12030;50.376;8.762;2023-11-21T13:15:26;6.50;;;4.07;;
23702;SDS011;12030;50.376;8.762;2023-11-21T13:17:52;6.87;;;3.90;;
23702;SDS011;12030;50.376;8.762;2023-11-21T13:20:19;7.10;;;3.83;;
23702;SDS011;12030;50.376;8.762;2023-11-21T13:22:52;6.53;;;3.90;;
23702;SDS011;12030;50.376;8.762;2023-11-21T13:25:26;6.40;;;3.80;;
23702;SDS011;12030;50.376;8.762;2023-11-21T13:27:55;5.43;;;3.40;;
23702;SDS011;12030;50.376;8.762;2023-11-21T13:30:22;4.90;;;3.50;;
23702;SDS011;12030;50.376;8.762;2023-11-21T13:32:51;4.60;;;3.80;;
23702;SDS011;12030;50.376;8.762;2023-11-21T13:35:18;4.40;;;3.50;;
23702;SDS011;12030;50.376;8.762;2023-11-21T13:37:51;4.77;;;3.53;;
23702;SDS011;12030;50.376;8.762;2023-11-21T13:40:20;4.63;;;3.50;;
23702;SDS011;12030;50.376;8.762;2023-11-21T13:42:50;6.10;;;3.47;;
23702;SDS011;12030;50.376;8.762;2023-11-21T13:45:18;5.57;;;3.10;;
23702;SDS011;12030;50.376;8.762;2023-11-21T13:47:48;5.77;;;3.47;;
23702;SDS011;12030;50.376;8.762;2023-11-21T13:50:16;5.73;;;3.37;;
23702;SDS011;12030;50.376;8.762;2023-11-21T13:52:47;6.23;;;3.80;;
23702;SDS011;12030;50.376;8.762;2023-11-21T13:55:13;9.27;;;3.37;;
23702;SDS011;12030;50.376;8.762;2023-11-21T13:57:43;4.37;;;3.40;;
23702;SDS011;12030;50.376;8.762;2023-11-21T14:00:12;6.80;;;3.83;;
23702;SDS011;12030;50.376;8.762;2023-11-21T14:02:58;5.87;;;3.50;;
23702;SDS011;12030;50.376;8.762;2023-11-21T14:05:30;4.93;;;3.47;;
23702;SDS011;12030;50.376;8.762;2023-11-21T14:07:59;5.07;;;3.03;;
23702;SDS011;12030;50.376;8.762;2023-11-21T14:10:29;5.87;;;3.63;;
23702;SDS011;12030;50.376;8.762;2023-11-21T14:13:11;6.67;;;3.57;;
23702;SDS011;12030;50.376;8.762;2023-11-21T14:15:38;5.17;;;3.57;;
23702;SDS011;12030;50.376;8.762;2023-11-21T14:18:07;6.17;;;3.77;;
23702;SDS011;12030;50.376;8.762;2023-11-21T14:20:35;5.93;;;3.43;;
23702;SDS011;12030;50.376;8.762;2023-11-21T14:23:04;5.50;;;3.90;;
23702;SDS011;12030;50.376;8.762;2023-11-21T14:25:32;5.40;;;3.60;;
23702;SDS011;12030;50.376;8.762;2023-11-21T14:27:58;6.53;;;4.00;;
23702;SDS011;12030;50.376;8.762;2023-11-21T14:30:24;8.87;;;3.70;;
23702;SDS011;12030;50.376;8.762;2023-11-21T14:32:51;5.27;;;3.60;;
23702;SDS011;12030;50.376;8.762;2023-11-21T14:35:16;5.17;;;3.77;;
23702;SDS011;12030;50.376;8.762;2023-11-21T14:37:42;8.20;;;4.07;;
23702;SDS011;12030;50.376;8.762;2023-11-21T14:40:08;6.77;;;4.00;;
23702;SDS011;12030;50.376;8.762;2023-11-21T14:42:34;8.40;;;3.67;;
23702;SDS011;12030;50.376;8.762;2023-11-21T14:45:02;6.27;;;4.00;;
23702;SDS011;12030;50.376;8.762;2023-11-21T14:47:32;5.20;;;3.60;;
23702;SDS011;12030;50.376;8.762;2023-11-21T14:49:59;5.63;;;3.73;;
23702;SDS011;12030;50.376;8.762;2023-11-21T14:52:47;7.93;;;4.37;;
23702;SDS011;12030;50.376;8.762;2023-11-21T14:55:20;6.23;;;4.30;;
23702;SDS011;12030;50.376;8.762;2023-11-21T14:57:52;4.77;;;4.07;;
23702;SDS011;12030;50.376;8.762;2023-11-21T15:00:19;6.53;;;4.30;;